Date,TemperatureHighF,TemperatureAvgF,TemperatureLowF,DewpointHighF,DewpointAvgF,DewpointLowF,HumidityHigh,HumidityAvg,HumidityLow,PressureMaxIn,PressureMinIn,WindSpeedMaxMPH,WindSpeedAvgMPH,GustSpeedMaxMPH,PrecipitationSumIn
2013-3-1,42,38,34,33,30,26,74,65,57,29.90,29.84,21,9,21,0.00
2013-3-2,42,36,32,31,29,24,81,67,50,29.93,29.81,24,10,24,0.00
2013-3-3,39,33,28,25,22,20,63,52,38,29.98,29.88,26,11,26,0.00
2013-3-4,57,41,27,34,26,19,64,46,28,30.11,29.96,16,4,16,0.00
2013-3-5,60,46,37,54,41,30,92,75,59,30.01,29.56,40,8,40,0.15
2013-3-6,39,35,31,31,27,23,81,66,54,30.11,29.76,34,17,34,0.00
2013-3-7,58,41,29,40,32,26,83,62,37,30.20,30.06,22,6,22,0.00
2013-3-8,62,44,29,38,31,25,82,52,27,30.28,30.14,11,2,11,0.00
2013-3-9,60,48,38,38,33,27,61,44,31,30.31,30.17,10,1,10,0.00
2013-3-10,65,56,47,44,39,34,57,45,32,30.21,30.06,16,4,16,0.00
2013-3-11,61,54,51,55,50,44,97,82,57,30.07,29.73,13,3,13,1.18
2013-3-12,59,49,38,53,40,32,97,67,31,30.03,29.72,26,10,26,0.03
2013-3-13,52,43,36,34,30,22,72,51,30,30.18,30.01,47,12,47,0.00
2013-3-14,54,40,28,30,22,18,62,40,17,30.31,30.15,19,7,19,0.00
2013-3-15,70,52,34,48,38,25,80,51,34,30.17,29.92,26,8,26,0.00
2013-3-16,73,62,52,52,46,43,64,48,30,29.94,29.80,35,10,35,0.00
2013-3-17,70,61,52,55,49,43,73,58,46,29.95,29.84,21,6,21,0.00
2013-3-18,58,48,43,52,45,42,96,86,66,29.99,29.75,13,4,13,0.70
2013-3-19,62,51,40,45,38,27,97,59,24,30.03,29.82,24,8,24,0.00
2013-3-20,57,47,38,31,27,23,66,36,23,30.08,29.81,37,7,37,0.00
2013-3-21,47,39,30,31,21,12,58,38,22,29.89,29.79,27,10,27,0.00
2013-3-22,51,42,34,35,27,18,57,45,33,30.00,29.87,10,1,10,0.00
2013-3-23,52,46,41,48,42,35,94,82,56,29.97,29.75,8,1,8,0.63
2013-3-24,50,46,41,46,44,35,96,90,72,29.78,29.42,48,6,48,0.99
2013-3-25,41,37,33,35,28,25,74,62,50,29.96,29.55,40,19,40,0.00
2013-3-26,41,36,31,29,27,25,73,61,46,30.21,29.91,31,12,31,0.00
2013-3-27,54,41,29,33,27,23,74,50,29,30.27,30.15,22,8,22,0.00
2013-3-28,59,45,30,36,29,24,71,44,25,30.29,30.17,26,6,26,0.00
2013-3-29,64,49,33,41,34,28,76,49,28,30.33,30.15,13,2,13,0.00
2013-3-30,69,56,46,54,44,38,92,58,34,30.17,29.97,19,2,19,0.28
2013-3-31,63,58,54,60,55,53,96,88,72,30.00,29.80,26,6,26,0.62